createdAt,value
2019-03-25T00:01:58.442Z,14.97
2019-03-25T00:04:25.877Z,16.60
2019-03-25T00:06:53.254Z,15.20
2019-03-25T00:09:20.664Z,14.67
2019-03-25T00:11:48.046Z,14.87
2019-03-25T00:14:15.459Z,14.27
2019-03-25T00:16:42.916Z,14.93
2019-03-25T00:19:10.336Z,13.70
2019-03-25T00:21:37.719Z,13.57
2019-03-25T00:24:05.126Z,12.83
2019-03-25T00:26:32.523Z,11.50
2019-03-25T00:28:59.933Z,9.90
2019-03-25T00:31:27.322Z,9.33
2019-03-25T00:33:54.709Z,10.00
2019-03-25T00:36:22.128Z,9.70
2019-03-25T00:38:49.509Z,10.07
2019-03-25T00:41:16.917Z,8.30
2019-03-25T00:43:44.306Z,7.87
2019-03-25T00:46:11.716Z,8.07
2019-03-25T00:48:39.095Z,8.10
2019-03-25T00:51:06.634Z,8.43
2019-03-25T00:53:33.964Z,8.10
2019-03-25T00:56:01.382Z,9.37
2019-03-25T00:58:28.771Z,8.30
2019-03-25T01:00:56.180Z,7.23
2019-03-25T01:03:23.562Z,7.60
2019-03-25T01:05:51.308Z,7.67
2019-03-25T01:08:18.690Z,7.97
2019-03-25T01:10:46.096Z,8.90
2019-03-25T01:13:13.480Z,9.93
2019-03-25T01:15:40.892Z,9.00
2019-03-25T01:18:16.930Z,8.03
2019-03-25T01:20:37.420Z,8.17
2019-03-25T01:23:04.804Z,8.47
2019-03-25T01:25:32.222Z,7.87
2019-03-25T01:27:59.605Z,7.83
2019-03-25T01:30:27.053Z,8.00
2019-03-25T01:32:54.446Z,8.50
2019-03-25T01:35:21.863Z,8.20
2019-03-25T01:37:49.249Z,6.60
2019-03-25T01:40:17.945Z,7.03
2019-03-25T01:42:45.331Z,7.50
2019-03-25T01:45:12.789Z,7.50
2019-03-25T01:47:40.204Z,8.23
2019-03-25T01:50:07.906Z,7.13
2019-03-25T01:52:35.399Z,6.87
2019-03-25T01:55:13.079Z,9.17
2019-03-25T01:57:31.840Z,9.00
2019-03-25T01:59:59.232Z,7.33
2019-03-25T02:02:26.720Z,7.50
2019-03-25T02:04:54.098Z,7.63
2019-03-25T02:07:21.514Z,8.28
2019-03-25T02:09:48.901Z,7.67
2019-03-25T02:12:16.314Z,8.17
2019-03-25T02:14:43.690Z,8.20
2019-03-25T02:17:11.107Z,8.20
2019-03-25T02:19:38.487Z,7.30
2019-03-25T02:22:06.019Z,6.50
2019-03-25T02:24:33.402Z,7.37
2019-03-25T02:27:01.850Z,7.20
2019-03-25T02:29:29.237Z,6.37
2019-03-25T02:31:56.761Z,7.33
2019-03-25T02:34:24.192Z,7.80
2019-03-25T02:36:51.596Z,6.33
2019-03-25T02:39:18.976Z,7.13
2019-03-25T02:41:46.406Z,7.17
2019-03-25T02:44:13.785Z,7.10
2019-03-25T02:46:41.202Z,5.53
2019-03-25T02:49:08.598Z,6.40
2019-03-25T02:51:36.012Z,6.20
2019-03-25T02:54:03.397Z,7.30
2019-03-25T02:56:30.931Z,7.30
2019-03-25T02:58:58.354Z,7.10
2019-03-25T03:01:25.837Z,7.40
2019-03-25T03:03:53.228Z,6.57
2019-03-25T03:06:20.637Z,6.60
2019-03-25T03:08:48.019Z,5.73
2019-03-25T03:11:15.438Z,6.17
2019-03-25T03:13:42.830Z,7.23
2019-03-25T03:16:10.243Z,5.90
2019-03-25T03:18:37.618Z,7.43
2019-03-25T03:21:05.100Z,7.23
2019-03-25T03:23:32.480Z,7.37
2019-03-25T03:25:59.870Z,6.60
2019-03-25T03:28:27.291Z,7.27
2019-03-25T03:30:54.856Z,7.57
2019-03-25T03:33:22.378Z,7.40
2019-03-25T03:35:49.778Z,7.87
2019-03-25T03:38:17.200Z,7.63
2019-03-25T03:40:44.589Z,6.10
2019-03-25T03:43:12.078Z,7.07
2019-03-25T03:45:39.461Z,6.10
2019-03-25T03:48:06.896Z,7.47
2019-03-25T03:50:34.356Z,7.10
2019-03-25T03:53:01.929Z,7.43
2019-03-25T03:55:29.505Z,7.17
2019-03-25T03:57:56.923Z,5.73
2019-03-25T04:00:31.465Z,6.97
2019-03-25T04:02:59.211Z,8.70
2019-03-25T04:05:26.603Z,7.30
2019-03-25T04:07:54.047Z,6.20
2019-03-25T04:10:21.452Z,5.93
2019-03-25T04:12:48.845Z,6.50
2019-03-25T04:15:17.766Z,7.67
2019-03-25T04:17:45.179Z,7.93
2019-03-25T04:20:12.642Z,6.70
2019-03-25T04:22:40.057Z,6.73
2019-03-25T04:25:07.506Z,7.43
2019-03-25T04:27:34.923Z,6.50
2019-03-25T04:30:02.328Z,6.40
2019-03-25T04:32:29.820Z,7.13
2019-03-25T04:34:57.198Z,7.13
2019-03-25T04:37:24.611Z,6.40
2019-03-25T04:39:51.993Z,7.20
2019-03-25T04:42:19.412Z,6.57
2019-03-25T04:44:46.798Z,6.33
2019-03-25T04:47:14.222Z,6.50
2019-03-25T04:49:41.610Z,7.57
2019-03-25T04:52:09.039Z,7.13
2019-03-25T04:54:36.419Z,7.13
2019-03-25T04:57:03.903Z,6.70
2019-03-25T04:59:31.280Z,7.10
2019-03-25T05:01:58.696Z,7.90
2019-03-25T05:04:26.082Z,8.97
2019-03-25T05:06:53.469Z,7.53
2019-03-25T05:09:20.883Z,7.07
2019-03-25T05:11:48.266Z,6.97
2019-03-25T05:14:15.678Z,6.80
2019-03-25T05:16:43.063Z,5.92
2019-03-25T05:19:10.473Z,6.87
2019-03-25T05:21:37.863Z,6.60
2019-03-25T05:24:05.275Z,6.90
2019-03-25T05:26:32.648Z,7.83
2019-03-25T05:29:00.056Z,6.80
2019-03-25T05:31:27.480Z,8.50
2019-03-25T05:33:54.935Z,7.03
2019-03-25T05:36:22.400Z,7.67
2019-03-25T05:38:49.812Z,7.20
2019-03-25T05:41:17.203Z,6.67
2019-03-25T05:43:44.631Z,7.10
2019-03-25T05:46:12.025Z,6.37
2019-03-25T05:48:39.452Z,7.57
2019-03-25T05:51:06.829Z,6.80
2019-03-25T05:53:34.246Z,6.60
2019-03-25T05:56:01.629Z,7.30
2019-03-25T05:58:29.063Z,6.67
2019-03-25T06:00:56.456Z,6.53
2019-03-25T06:03:23.874Z,6.33
2019-03-25T06:05:51.271Z,7.73
2019-03-25T06:08:18.717Z,7.03
2019-03-25T06:10:46.087Z,7.10
2019-03-25T06:13:13.507Z,7.60
2019-03-25T06:15:40.886Z,7.50
2019-03-25T06:18:08.299Z,7.50
2019-03-25T06:20:35.682Z,6.90
2019-03-25T06:23:03.103Z,8.50
2019-03-25T06:25:30.488Z,7.83
2019-03-25T06:27:57.867Z,7.00
2019-03-25T06:30:25.358Z,7.53
2019-03-25T06:32:52.746Z,8.30
2019-03-25T06:35:20.229Z,7.00
2019-03-25T06:37:47.612Z,8.53
2019-03-25T06:40:15.102Z,8.30
2019-03-25T06:42:42.480Z,7.20
2019-03-25T06:45:10.083Z,7.30
2019-03-25T06:47:37.457Z,7.07
2019-03-25T06:50:06.345Z,7.63
2019-03-25T06:52:33.731Z,7.53
2019-03-25T06:55:01.140Z,6.73
2019-03-25T06:57:28.529Z,6.63
2019-03-25T06:59:55.930Z,8.50
2019-03-25T07:02:23.312Z,9.30
2019-03-25T07:04:50.726Z,8.27
2019-03-25T07:07:18.100Z,5.87
2019-03-25T07:09:45.581Z,6.63
2019-03-25T07:12:12.961Z,5.70
2019-03-25T07:14:40.545Z,6.73
2019-03-25T07:17:07.931Z,5.83
2019-03-25T07:19:35.346Z,7.43
2019-03-25T07:22:02.733Z,6.17
2019-03-25T07:24:30.143Z,7.60
2019-03-25T07:26:57.522Z,7.03
2019-03-25T07:29:24.945Z,6.33
2019-03-25T07:31:52.319Z,6.03
2019-03-25T07:34:19.699Z,6.83
2019-03-25T07:36:47.191Z,7.03
2019-03-25T07:39:14.573Z,7.30
2019-03-25T07:41:41.981Z,7.00
2019-03-25T07:44:09.355Z,8.10
2019-03-25T07:46:36.794Z,6.60
2019-03-25T07:49:04.173Z,6.60
2019-03-25T07:51:31.585Z,6.87
2019-03-25T07:53:58.975Z,7.10
2019-03-25T07:56:26.385Z,7.57
2019-03-25T07:58:53.785Z,6.67
2019-03-25T08:01:21.220Z,8.60
2019-03-25T08:03:48.574Z,6.20
2019-03-25T08:06:16.016Z,6.10
2019-03-25T08:08:43.372Z,6.00
2019-03-25T08:11:10.832Z,7.47
2019-03-25T08:13:38.187Z,6.80
2019-03-25T08:16:05.686Z,6.13
2019-03-25T08:18:33.073Z,5.70
2019-03-25T08:21:00.493Z,6.90
2019-03-25T08:23:27.870Z,7.00
2019-03-25T08:25:55.277Z,5.80
2019-03-25T08:28:22.850Z,4.50
2019-03-25T08:30:50.232Z,6.30
2019-03-25T08:33:17.611Z,5.10
2019-03-25T08:35:45.106Z,5.63
2019-03-25T08:38:12.485Z,6.80
2019-03-25T08:40:39.904Z,5.50
2019-03-25T08:43:07.285Z,6.10
2019-03-25T08:45:34.870Z,5.90
2019-03-25T08:48:02.316Z,5.37
2019-03-25T08:50:29.717Z,6.07
2019-03-25T08:52:57.096Z,6.47
2019-03-25T08:55:24.489Z,5.70
2019-03-25T08:57:51.902Z,6.73
2019-03-25T09:00:19.461Z,7.63
2019-03-25T09:02:46.872Z,7.83
2019-03-25T09:05:14.322Z,6.37
2019-03-25T09:07:41.739Z,6.57
2019-03-25T09:10:09.499Z,6.37
2019-03-25T09:12:36.977Z,6.20
2019-03-25T09:15:06.162Z,4.80
2019-03-25T09:17:33.577Z,5.87
2019-03-25T09:20:00.964Z,6.33
2019-03-25T09:22:28.373Z,6.17
2019-03-25T09:24:55.762Z,6.83
2019-03-25T09:27:23.314Z,6.07
2019-03-25T09:29:50.703Z,6.80
2019-03-25T09:32:18.182Z,7.10
2019-03-25T09:34:45.569Z,4.73
2019-03-25T09:37:13.072Z,6.00
2019-03-25T09:39:40.474Z,5.90
2019-03-25T09:42:08.022Z,7.03
2019-03-25T09:44:35.333Z,5.67
2019-03-25T09:47:02.751Z,6.93
2019-03-25T09:49:30.133Z,5.50
2019-03-25T09:51:57.544Z,5.53
2019-03-25T09:54:24.986Z,4.83
2019-03-25T09:56:52.333Z,5.67
2019-03-25T09:59:19.719Z,7.60
2019-03-25T10:01:47.136Z,5.80
2019-03-25T10:04:14.527Z,6.27
2019-03-25T10:06:41.942Z,5.23
2019-03-25T10:09:09.777Z,6.37
2019-03-25T10:11:37.192Z,5.83
2019-03-25T10:14:04.641Z,6.13
2019-03-25T10:16:32.267Z,5.77
2019-03-25T10:18:59.647Z,5.83
2019-03-25T10:21:27.101Z,5.53
2019-03-25T10:23:54.958Z,4.40
2019-03-25T10:26:22.613Z,4.60
2019-03-25T10:28:50.023Z,6.30
2019-03-25T10:31:17.657Z,6.07
2019-03-25T10:33:45.131Z,5.87
2019-03-25T10:36:12.524Z,5.77
2019-03-25T10:38:39.946Z,5.43
2019-03-25T10:41:07.321Z,6.00
2019-03-25T10:43:34.734Z,6.90
2019-03-25T10:46:02.197Z,5.40
2019-03-25T10:48:29.598Z,6.50
2019-03-25T10:50:57.119Z,4.30
2019-03-25T10:53:24.529Z,4.77
2019-03-25T10:55:51.910Z,4.77
2019-03-25T10:58:19.313Z,3.60
2019-03-25T11:00:46.704Z,3.50
2019-03-25T11:03:14.114Z,3.27
2019-03-25T11:05:41.509Z,3.77
2019-03-25T11:08:08.908Z,3.40
2019-03-25T11:10:36.292Z,3.37
2019-03-25T11:13:03.878Z,3.20
2019-03-25T11:15:31.331Z,3.80
2019-03-25T11:17:58.746Z,4.40
2019-03-25T11:20:26.126Z,3.20
2019-03-25T11:22:53.532Z,4.50
2019-03-25T11:25:20.992Z,3.90
2019-03-25T11:27:54.355Z,3.60
2019-03-25T11:30:18.982Z,3.37
2019-03-25T11:32:46.397Z,3.80
2019-03-25T11:35:13.855Z,4.80
2019-03-25T11:37:41.279Z,4.57
2019-03-25T11:40:09.128Z,3.13
2019-03-25T11:42:36.610Z,3.77
2019-03-25T11:45:08.228Z,2.95
2019-03-25T11:47:35.605Z,3.27
2019-03-25T11:50:03.789Z,3.27
2019-03-25T11:52:31.171Z,4.00
2019-03-25T11:54:58.575Z,3.90
2019-03-25T11:57:25.966Z,6.57
2019-03-25T11:59:53.375Z,4.83
2019-03-25T12:02:20.758Z,5.80
2019-03-25T12:04:48.179Z,3.93
2019-03-25T12:07:15.554Z,2.80
2019-03-25T12:09:42.968Z,2.23
2019-03-25T12:12:10.359Z,2.97
2019-03-25T12:14:37.762Z,3.87
2019-03-25T12:17:05.210Z,2.93
2019-03-25T12:19:32.631Z,3.30
2019-03-25T12:22:00.002Z,2.80
2019-03-25T12:24:27.983Z,3.60
2019-03-25T12:26:55.363Z,2.40
2019-03-25T12:29:30.049Z,2.97
2019-03-25T12:31:51.797Z,2.47
2019-03-25T12:34:19.350Z,2.20
2019-03-25T12:36:46.751Z,2.40
2019-03-25T12:39:14.161Z,2.67
2019-03-25T12:41:41.537Z,2.00
2019-03-25T12:44:08.950Z,3.77
2019-03-25T12:46:36.339Z,1.93
2019-03-25T12:49:03.748Z,2.33
2019-03-25T12:51:31.121Z,3.13
2019-03-25T12:53:58.540Z,2.60
2019-03-25T12:56:25.917Z,2.93
2019-03-25T12:58:53.323Z,2.90
2019-03-25T13:01:20.723Z,3.53
2019-03-25T13:03:48.123Z,2.20
2019-03-25T13:06:15.500Z,2.43
2019-03-25T13:08:42.905Z,2.47
2019-03-25T13:11:10.288Z,2.47
2019-03-25T13:13:37.703Z,2.40
2019-03-25T13:16:05.114Z,2.50
2019-03-25T13:18:32.493Z,1.90
2019-03-25T13:20:59.908Z,1.80
2019-03-25T13:23:27.283Z,2.10
2019-03-25T13:25:54.704Z,2.00
2019-03-25T13:28:22.088Z,1.77
2019-03-25T13:30:49.501Z,2.20
2019-03-25T13:33:16.881Z,2.13
2019-03-25T13:35:44.289Z,1.40
2019-03-25T13:38:11.676Z,2.23
2019-03-25T13:40:39.081Z,2.47
2019-03-25T13:43:06.458Z,1.63
2019-03-25T13:45:33.842Z,2.00
2019-03-25T13:48:01.244Z,2.13
2019-03-25T13:50:28.635Z,2.30
2019-03-25T13:52:56.047Z,2.10
2019-03-25T13:55:23.428Z,1.40
2019-03-25T13:57:50.835Z,1.70
2019-03-25T14:00:19.754Z,2.13
2019-03-25T14:02:47.168Z,1.70
2019-03-25T14:05:14.553Z,2.00
2019-03-25T14:07:41.949Z,1.83
2019-03-25T14:10:09.699Z,1.50
2019-03-25T14:12:37.107Z,1.60
2019-03-25T14:15:06.035Z,1.60
2019-03-25T14:17:33.465Z,2.70
2019-03-25T14:20:00.841Z,1.40
2019-03-25T14:22:28.266Z,1.63
2019-03-25T14:24:55.650Z,1.10
2019-03-25T14:27:23.053Z,1.50
2019-03-25T14:29:50.441Z,1.73
2019-03-25T14:32:17.852Z,2.07
2019-03-25T14:34:45.307Z,2.47
2019-03-25T14:37:12.739Z,2.50
2019-03-25T14:39:40.121Z,1.93
2019-03-25T14:42:07.610Z,2.03
2019-03-25T14:44:34.986Z,2.70
2019-03-25T14:47:02.389Z,2.23
2019-03-25T14:49:29.777Z,2.50
2019-03-25T14:51:57.181Z,1.30
2019-03-25T14:54:24.568Z,1.70
2019-03-25T14:56:51.981Z,2.03
2019-03-25T14:59:19.361Z,2.60
2019-03-25T15:01:46.737Z,1.70
2019-03-25T15:04:14.146Z,1.40
2019-03-25T15:06:41.532Z,1.70
2019-03-25T15:09:09.209Z,2.97
2019-03-25T15:11:36.600Z,1.20
2019-03-25T15:14:04.274Z,0.97
2019-03-25T15:16:31.652Z,1.70
2019-03-25T15:18:59.061Z,1.20
2019-03-25T15:21:26.432Z,1.50
2019-03-25T15:23:53.844Z,1.43
2019-03-25T15:26:21.233Z,1.67
2019-03-25T15:28:48.654Z,2.33
2019-03-25T15:31:16.027Z,1.60
2019-03-25T15:33:43.475Z,1.30
2019-03-25T15:36:10.899Z,2.27
2019-03-25T15:38:38.306Z,1.70
2019-03-25T15:41:05.682Z,1.80
2019-03-25T15:43:33.083Z,1.33
2019-03-25T15:46:00.638Z,3.20
2019-03-25T15:48:28.047Z,1.47
2019-03-25T15:50:55.427Z,1.70
2019-03-25T15:53:22.831Z,2.30
2019-03-25T15:55:50.213Z,1.00
2019-03-25T15:58:25.669Z,1.10
2019-03-25T16:00:48.104Z,1.30
2019-03-25T16:03:15.691Z,1.40
2019-03-25T16:05:43.079Z,0.77
2019-03-25T16:08:10.486Z,1.07
2019-03-25T16:10:37.881Z,0.60
2019-03-25T16:13:05.370Z,0.70
2019-03-25T16:15:39.497Z,0.97
2019-03-25T16:18:07.372Z,0.90
2019-03-25T16:20:35.026Z,1.10
2019-03-25T16:23:02.420Z,2.00
2019-03-25T16:25:29.979Z,0.80
2019-03-25T16:27:59.288Z,1.00
2019-03-25T16:30:26.637Z,1.00
2019-03-25T16:32:54.119Z,1.43
2019-03-25T16:35:24.087Z,1.30
2019-03-25T16:37:51.454Z,1.40
2019-03-25T16:40:18.822Z,1.10
2019-03-25T16:42:46.212Z,1.10
2019-03-25T16:45:13.621Z,1.50
2019-03-25T16:47:41.087Z,1.30
2019-03-25T16:50:08.561Z,1.13
2019-03-25T16:52:35.964Z,1.70
2019-03-25T16:55:04.841Z,1.57
2019-03-25T16:57:32.245Z,1.20
2019-03-25T16:59:59.658Z,1.10
2019-03-25T17:02:27.040Z,1.40
2019-03-25T17:04:54.452Z,1.27
2019-03-25T17:07:21.838Z,3.30
2019-03-25T17:09:49.257Z,9.00
2019-03-25T17:12:16.718Z,3.00
2019-03-25T17:14:44.124Z,4.30
2019-03-25T17:17:11.510Z,1.50
2019-03-25T17:19:38.917Z,1.73
2019-03-25T17:22:06.309Z,1.27
2019-03-25T17:24:33.729Z,1.47
2019-03-25T17:27:01.130Z,1.30
2019-03-25T17:29:28.608Z,1.27
2019-03-25T17:31:56.034Z,1.40
2019-03-25T17:34:23.458Z,0.97
2019-03-25T17:36:50.844Z,1.30
2019-03-25T17:39:18.260Z,1.20
2019-03-25T17:41:46.068Z,1.20
2019-03-25T17:44:13.527Z,1.50
2019-03-25T17:46:40.917Z,1.40
2019-03-25T17:49:08.333Z,1.30
2019-03-25T17:51:35.712Z,1.20
2019-03-25T17:54:03.226Z,1.57
2019-03-25T17:56:30.695Z,2.17
2019-03-25T17:58:58.117Z,5.13
2019-03-25T18:01:32.251Z,4.10
2019-03-25T18:03:56.048Z,5.83
2019-03-25T18:06:23.479Z,3.40
2019-03-25T18:08:50.869Z,3.60
2019-03-25T18:11:18.331Z,6.33
2019-03-25T18:13:45.753Z,5.80
2019-03-25T18:16:13.208Z,5.00
2019-03-25T18:18:40.630Z,4.63
2019-03-25T18:21:08.104Z,4.03
2019-03-25T18:23:35.504Z,3.97
2019-03-25T18:26:02.907Z,3.93
2019-03-25T18:28:30.296Z,4.57
2019-03-25T18:30:57.708Z,3.40
2019-03-25T18:33:25.093Z,3.43
2019-03-25T18:35:52.541Z,2.70
2019-03-25T18:38:19.945Z,2.00
2019-03-25T18:40:47.482Z,2.07
2019-03-25T18:43:14.808Z,2.03
2019-03-25T18:45:42.220Z,2.17
2019-03-25T18:48:09.606Z,3.00
2019-03-25T18:50:45.070Z,1.85
2019-03-25T18:53:12.446Z,2.27
2019-03-25T18:55:39.972Z,1.53
2019-03-25T18:58:07.396Z,2.00
2019-03-25T19:00:35.176Z,2.60
2019-03-25T19:03:02.944Z,1.80
2019-03-25T19:05:30.593Z,2.13
2019-03-25T19:07:58.633Z,1.80
2019-03-25T19:10:26.584Z,2.70
2019-03-25T19:12:53.973Z,3.07
2019-03-25T19:15:21.470Z,8.40
2019-03-25T19:17:48.821Z,1.40
2019-03-25T19:20:16.246Z,1.73
2019-03-25T19:22:43.623Z,1.47
2019-03-25T19:25:11.027Z,1.70
2019-03-25T19:27:38.413Z,1.27
2019-03-25T19:30:07.083Z,1.07
2019-03-25T19:32:34.496Z,1.10
2019-03-25T19:35:01.856Z,1.10
2019-03-25T19:37:29.267Z,1.20
2019-03-25T19:39:56.658Z,1.10
2019-03-25T19:42:24.063Z,1.50
2019-03-25T19:44:51.447Z,1.23
2019-03-25T19:47:18.853Z,1.20
2019-03-25T19:49:46.249Z,0.80
2019-03-25T19:52:13.679Z,0.83
2019-03-25T19:54:41.034Z,1.27
2019-03-25T19:57:08.422Z,1.17
2019-03-25T19:59:35.836Z,0.83
2019-03-25T20:02:03.220Z,1.13
2019-03-25T20:04:30.600Z,1.03
2019-03-25T20:06:58.045Z,0.97
2019-03-25T20:09:25.393Z,1.30
2019-03-25T20:11:52.856Z,1.03
2019-03-25T20:14:20.184Z,1.30
2019-03-25T20:16:47.596Z,1.10
2019-03-25T20:19:14.977Z,1.10
2019-03-25T20:21:42.432Z,1.70
2019-03-25T20:24:09.819Z,1.33
2019-03-25T20:26:37.180Z,1.80
2019-03-25T20:29:06.471Z,1.40
2019-03-25T20:31:33.603Z,1.90
2019-03-25T20:34:10.347Z,2.00
2019-03-25T20:36:30.088Z,1.70
2019-03-25T20:38:57.422Z,2.10
2019-03-25T20:41:24.852Z,4.30
2019-03-25T20:43:52.264Z,4.03
2019-03-25T20:46:19.652Z,2.77
2019-03-25T20:48:47.012Z,2.70
2019-03-25T20:51:14.427Z,2.50
2019-03-25T20:53:41.811Z,2.90
2019-03-25T20:56:09.268Z,3.00
2019-03-25T20:58:36.653Z,3.87
2019-03-25T21:01:04.044Z,3.33
2019-03-25T21:03:31.448Z,3.97
2019-03-25T21:05:58.849Z,3.20
2019-03-25T21:08:26.256Z,3.40
2019-03-25T21:10:53.660Z,2.80
2019-03-25T21:13:21.035Z,3.40
2019-03-25T21:15:48.440Z,3.27
2019-03-25T21:18:15.948Z,3.47
2019-03-25T21:20:43.318Z,3.15
2019-03-25T21:23:10.777Z,3.07
2019-03-25T21:25:38.150Z,3.40
2019-03-25T21:28:05.597Z,3.43
2019-03-25T21:30:33.030Z,3.47
2019-03-25T21:33:00.520Z,3.83
2019-03-25T21:35:27.879Z,3.90
2019-03-25T21:37:55.469Z,3.70
2019-03-25T21:40:22.859Z,3.92
2019-03-25T21:42:50.247Z,4.10
2019-03-25T21:45:17.636Z,4.10
2019-03-25T21:47:45.102Z,5.50
2019-03-25T21:50:12.679Z,4.63
2019-03-25T21:52:40.200Z,4.67
2019-03-25T21:55:07.668Z,5.13
2019-03-25T21:57:35.185Z,4.57
2019-03-25T22:00:02.823Z,4.47
2019-03-25T22:02:30.249Z,5.10
2019-03-25T22:04:57.639Z,4.60
2019-03-25T22:07:25.050Z,4.70
2019-03-25T22:09:52.436Z,5.03
2019-03-25T22:12:19.841Z,5.00
2019-03-25T22:14:47.219Z,5.30
2019-03-25T22:17:14.609Z,5.70
2019-03-25T22:19:42.042Z,5.70
2019-03-25T22:22:09.388Z,6.13
2019-03-25T22:24:36.822Z,6.37
2019-03-25T22:27:04.186Z,6.53
2019-03-25T22:29:31.598Z,6.30
2019-03-25T22:31:59.043Z,6.67
2019-03-25T22:34:26.516Z,6.30
2019-03-25T22:36:53.888Z,6.00
2019-03-25T22:39:23.414Z,6.50
2019-03-25T22:41:50.916Z,6.30
2019-03-25T22:44:18.772Z,6.73
2019-03-25T22:46:46.155Z,6.20
2019-03-25T22:49:13.575Z,6.93
2019-03-25T22:51:40.958Z,5.67
2019-03-25T22:54:08.415Z,6.30
2019-03-25T22:56:35.764Z,6.30
2019-03-25T22:59:03.174Z,5.70
2019-03-25T23:01:30.617Z,5.83
2019-03-25T23:03:58.070Z,5.53
2019-03-25T23:06:25.455Z,5.97
2019-03-25T23:08:52.854Z,6.00
2019-03-25T23:11:20.235Z,7.77
2019-03-25T23:13:47.634Z,7.10
2019-03-25T23:16:15.011Z,6.27
2019-03-25T23:18:42.431Z,5.83
2019-03-25T23:21:09.805Z,7.10
2019-03-25T23:23:37.211Z,6.43
2019-03-25T23:26:04.663Z,6.30
2019-03-25T23:28:32.065Z,6.17
2019-03-25T23:30:59.449Z,6.40
2019-03-25T23:33:26.831Z,6.13
2019-03-25T23:35:54.231Z,6.67
2019-03-25T23:38:21.614Z,6.97
2019-03-25T23:40:49.015Z,6.80
2019-03-25T23:43:16.401Z,6.77
2019-03-25T23:45:43.805Z,6.33
2019-03-25T23:48:11.178Z,7.40
2019-03-25T23:50:38.585Z,6.50
2019-03-25T23:53:05.971Z,6.73
2019-03-25T23:55:33.552Z,7.00
2019-03-25T23:58:00.927Z,6.53
